sensor_id;sensor_type;location;lat;lon;timestamp;P1;durP1;ratioP1;P2;durP2;ratioP2
45420;SDS011;55462;47.042;8.292;2023-12-20T00:00:51;8.67;;;7.87;;
45420;SDS011;55462;47.042;8.292;2023-12-20T00:03:16;8.87;;;8.07;;
45420;SDS011;55462;47.042;8.292;2023-12-20T00:05:41;9.27;;;8.33;;
45420;SDS011;55462;47.042;8.292;2023-12-20T00:08:07;9.43;;;7.70;;
45420;SDS011;55462;47.042;8.292;2023-12-20T00:10:32;8.80;;;7.90;;
45420;SDS011;55462;47.042;8.292;2023-12-20T00:12:57;8.77;;;7.87;;
45420;SDS011;55462;47.042;8.292;2023-12-20T00:15:23;8.67;;;7.83;;
45420;SDS011;55462;47.042;8.292;2023-12-20T00:17:48;8.73;;;7.83;;
45420;SDS011;55462;47.042;8.292;2023-12-20T00:20:13;8.80;;;8.00;;
45420;SDS011;55462;47.042;8.292;2023-12-20T00:22:39;8.00;;;7.30;;
45420;SDS011;55462;47.042;8.292;2023-12-20T00:25:04;8.93;;;8.13;;
45420;SDS011;55462;47.042;8.292;2023-12-20T00:27:29;8.60;;;7.80;;
45420;SDS011;55462;47.042;8.292;2023-12-20T00:29:55;9.60;;;7.63;;
45420;SDS011;55462;47.042;8.292;2023-12-20T00:32:20;10.13;;;8.70;;
45420;SDS011;55462;47.042;8.292;2023-12-20T00:34:45;11.03;;;8.20;;
45420;SDS011;55462;47.042;8.292;2023-12-20T00:37:11;8.57;;;7.77;;
45420;SDS011;55462;47.042;8.292;2023-12-20T00:39:36;9.03;;;8.23;;
45420;SDS011;55462;47.042;8.292;2023-12-20T00:42:02;8.97;;;8.07;;
45420;SDS011;55462;47.042;8.292;2023-12-20T00:44:27;8.83;;;8.00;;
45420;SDS011;55462;47.042;8.292;2023-12-20T00:46:52;8.67;;;7.83;;
45420;SDS011;55462;47.042;8.292;2023-12-20T00:49:18;9.10;;;8.20;;
45420;SDS011;55462;47.042;8.292;2023-12-20T00:51:43;9.20;;;8.30;;
45420;SDS011;55462;47.042;8.292;2023-12-20T00:54:08;9.10;;;8.20;;
45420;SDS011;55462;47.042;8.292;2023-12-20T00:56:34;9.40;;;8.60;;
45420;SDS011;55462;47.042;8.292;2023-12-20T00:58:59;10.07;;;9.07;;
45420;SDS011;55462;47.042;8.292;2023-12-20T01:01:24;10.23;;;9.30;;
45420;SDS011;55462;47.042;8.292;2023-12-20T01:03:50;10.30;;;8.27;;
45420;SDS011;55462;47.042;8.292;2023-12-20T01:06:16;8.73;;;7.93;;
45420;SDS011;55462;47.042;8.292;2023-12-20T01:08:41;8.30;;;7.50;;
45420;SDS011;55462;47.042;8.292;2023-12-20T01:11:07;9.10;;;8.20;;
45420;SDS011;55462;47.042;8.292;2023-12-20T01:13:32;9.33;;;8.43;;
45420;SDS011;55462;47.042;8.292;2023-12-20T01:15:57;9.30;;;8.43;;
45420;SDS011;55462;47.042;8.292;2023-12-20T01:18:23;9.70;;;8.70;;
45420;SDS011;55462;47.042;8.292;2023-12-20T01:20:48;9.17;;;8.30;;
45420;SDS011;55462;47.042;8.292;2023-12-20T01:23:13;9.40;;;8.03;;
45420;SDS011;55462;47.042;8.292;2023-12-20T01:25:39;8.67;;;7.87;;
45420;SDS011;55462;47.042;8.292;2023-12-20T01:28:04;9.00;;;8.20;;
45420;SDS011;55462;47.042;8.292;2023-12-20T01:30:29;8.97;;;8.07;;
45420;SDS011;55462;47.042;8.292;2023-12-20T01:32:55;10.77;;;8.70;;
45420;SDS011;55462;47.042;8.292;2023-12-20T01:35:20;8.70;;;7.90;;
45420;SDS011;55462;47.042;8.292;2023-12-20T01:37:45;9.47;;;8.57;;
45420;SDS011;55462;47.042;8.292;2023-12-20T01:40:11;10.00;;;8.87;;
45420;SDS011;55462;47.042;8.292;2023-12-20T01:42:36;10.10;;;9.10;;
45420;SDS011;55462;47.042;8.292;2023-12-20T01:45:01;10.43;;;9.43;;
45420;SDS011;55462;47.042;8.292;2023-12-20T01:47:27;10.23;;;9.17;;
45420;SDS011;55462;47.042;8.292;2023-12-20T01:49:53;9.63;;;8.70;;
45420;SDS011;55462;47.042;8.292;2023-12-20T01:52:19;9.70;;;8.80;;
45420;SDS011;55462;47.042;8.292;2023-12-20T01:54:44;9.73;;;8.83;;
45420;SDS011;55462;47.042;8.292;2023-12-20T01:57:10;10.10;;;9.07;;
45420;SDS011;55462;47.042;8.292;2023-12-20T01:59:35;9.67;;;8.77;;
45420;SDS011;55462;47.042;8.292;2023-12-20T02:02:01;9.73;;;8.73;;
45420;SDS011;55462;47.042;8.292;2023-12-20T02:04:28;10.23;;;9.23;;
45420;SDS011;55462;47.042;8.292;2023-12-20T02:06:54;10.13;;;8.63;;
45420;SDS011;55462;47.042;8.292;2023-12-20T02:09:20;9.13;;;8.33;;
45420;SDS011;55462;47.042;8.292;2023-12-20T02:11:45;9.67;;;8.80;;
45420;SDS011;55462;47.042;8.292;2023-12-20T02:14:11;9.53;;;8.70;;
45420;SDS011;55462;47.042;8.292;2023-12-20T02:16:36;9.57;;;8.67;;
45420;SDS011;55462;47.042;8.292;2023-12-20T02:19:03;9.67;;;8.77;;
45420;SDS011;55462;47.042;8.292;2023-12-20T02:21:32;9.60;;;8.70;;
45420;SDS011;55462;47.042;8.292;2023-12-20T02:23:58;10.07;;;9.13;;
45420;SDS011;55462;47.042;8.292;2023-12-20T02:26:24;9.60;;;8.50;;
45420;SDS011;55462;47.042;8.292;2023-12-20T02:28:49;9.00;;;8.07;;
45420;SDS011;55462;47.042;8.292;2023-12-20T02:31:14;9.10;;;8.23;;
45420;SDS011;55462;47.042;8.292;2023-12-20T02:33:40;10.50;;;8.27;;
45420;SDS011;55462;47.042;8.292;2023-12-20T02:36:07;8.93;;;8.07;;
45420;SDS011;55462;47.042;8.292;2023-12-20T02:38:32;9.43;;;8.47;;
45420;SDS011;55462;47.042;8.292;2023-12-20T02:40:58;10.77;;;9.67;;
45420;SDS011;55462;47.042;8.292;2023-12-20T02:43:24;10.37;;;9.13;;
45420;SDS011;55462;47.042;8.292;2023-12-20T02:45:49;9.50;;;8.60;;
45420;SDS011;55462;47.042;8.292;2023-12-20T02:48:14;9.17;;;8.30;;
45420;SDS011;55462;47.042;8.292;2023-12-20T02:50:40;9.70;;;8.80;;
45420;SDS011;55462;47.042;8.292;2023-12-20T02:53:05;9.77;;;8.40;;
45420;SDS011;55462;47.042;8.292;2023-12-20T02:55:30;9.60;;;8.70;;
45420;SDS011;55462;47.042;8.292;2023-12-20T02:57:55;9.47;;;8.57;;
45420;SDS011;55462;47.042;8.292;2023-12-20T03:00:21;9.73;;;8.73;;
45420;SDS011;55462;47.042;8.292;2023-12-20T03:02:46;12.00;;;8.23;;
45420;SDS011;55462;47.042;8.292;2023-12-20T03:05:11;11.07;;;9.97;;
45420;SDS011;55462;47.042;8.292;2023-12-20T03:07:37;9.53;;;8.53;;
45420;SDS011;55462;47.042;8.292;2023-12-20T03:10:03;10.27;;;7.70;;
45420;SDS011;55462;47.042;8.292;2023-12-20T03:12:29;8.77;;;7.97;;
45420;SDS011;55462;47.042;8.292;2023-12-20T03:14:54;8.93;;;8.10;;
45420;SDS011;55462;47.042;8.292;2023-12-20T03:17:19;10.30;;;8.47;;
45420;SDS011;55462;47.042;8.292;2023-12-20T03:19:46;9.07;;;8.20;;
45420;SDS011;55462;47.042;8.292;2023-12-20T03:22:11;8.57;;;7.80;;
45420;SDS011;55462;47.042;8.292;2023-12-20T03:24:36;9.03;;;8.00;;
45420;SDS011;55462;47.042;8.292;2023-12-20T03:27:01;8.37;;;7.40;;
45420;SDS011;55462;47.042;8.292;2023-12-20T03:29:27;8.80;;;7.93;;
45420;SDS011;55462;47.042;8.292;2023-12-20T03:31:52;8.70;;;7.80;;
45420;SDS011;55462;47.042;8.292;2023-12-20T03:34:17;7.60;;;7.00;;
45420;SDS011;55462;47.042;8.292;2023-12-20T03:36:43;8.73;;;7.93;;
45420;SDS011;55462;47.042;8.292;2023-12-20T03:39:09;8.70;;;7.90;;
45420;SDS011;55462;47.042;8.292;2023-12-20T03:41:35;7.78;;;7.07;;
45420;SDS011;55462;47.042;8.292;2023-12-20T03:44:00;8.57;;;7.77;;
45420;SDS011;55462;47.042;8.292;2023-12-20T03:46:25;9.13;;;8.23;;
45420;SDS011;55462;47.042;8.292;2023-12-20T03:48:51;11.43;;;8.67;;
45420;SDS011;55462;47.042;8.292;2023-12-20T03:51:16;9.60;;;8.80;;
45420;SDS011;55462;47.042;8.292;2023-12-20T03:53:41;9.67;;;8.77;;
45420;SDS011;55462;47.042;8.292;2023-12-20T03:56:07;11.10;;;8.70;;
45420;SDS011;55462;47.042;8.292;2023-12-20T03:58:32;9.37;;;8.47;;
45420;SDS011;55462;47.042;8.292;2023-12-20T04:00:57;8.87;;;8.07;;
45420;SDS011;55462;47.042;8.292;2023-12-20T04:03:23;9.30;;;8.37;;
45420;SDS011;55462;47.042;8.292;2023-12-20T04:05:48;9.70;;;8.80;;
45420;SDS011;55462;47.042;8.292;2023-12-20T04:08:13;8.50;;;7.70;;
45420;SDS011;55462;47.042;8.292;2023-12-20T04:10:39;8.33;;;7.53;;
45420;SDS011;55462;47.042;8.292;2023-12-20T04:13:04;9.60;;;8.67;;
45420;SDS011;55462;47.042;8.292;2023-12-20T04:15:29;9.13;;;8.23;;
45420;SDS011;55462;47.042;8.292;2023-12-20T04:17:54;11.47;;;8.77;;
45420;SDS011;55462;47.042;8.292;2023-12-20T04:20:20;9.90;;;9.00;;
45420;SDS011;55462;47.042;8.292;2023-12-20T04:22:45;10.47;;;8.40;;
45420;SDS011;55462;47.042;8.292;2023-12-20T04:25:11;10.50;;;9.50;;
45420;SDS011;55462;47.042;8.292;2023-12-20T04:27:36;10.20;;;9.20;;
45420;SDS011;55462;47.042;8.292;2023-12-20T04:30:01;8.67;;;7.87;;
45420;SDS011;55462;47.042;8.292;2023-12-20T04:32:27;11.70;;;9.70;;
45420;SDS011;55462;47.042;8.292;2023-12-20T04:34:52;10.60;;;9.60;;
45420;SDS011;55462;47.042;8.292;2023-12-20T04:37:17;9.33;;;8.43;;
45420;SDS011;55462;47.042;8.292;2023-12-20T04:39:43;10.20;;;9.10;;
45420;SDS011;55462;47.042;8.292;2023-12-20T04:42:08;12.97;;;10.13;;
45420;SDS011;55462;47.042;8.292;2023-12-20T04:44:33;8.77;;;7.60;;
45420;SDS011;55462;47.042;8.292;2023-12-20T04:46:59;7.67;;;6.97;;
45420;SDS011;55462;47.042;8.292;2023-12-20T04:49:24;7.33;;;6.63;;
45420;SDS011;55462;47.042;8.292;2023-12-20T04:51:50;8.10;;;7.40;;
45420;SDS011;55462;47.042;8.292;2023-12-20T04:54:15;7.90;;;7.20;;
45420;SDS011;55462;47.042;8.292;2023-12-20T04:56:41;7.73;;;6.93;;
45420;SDS011;55462;47.042;8.292;2023-12-20T04:59:06;8.43;;;7.53;;
45420;SDS011;55462;47.042;8.292;2023-12-20T05:01:32;9.68;;;8.68;;
45420;SDS011;55462;47.042;8.292;2023-12-20T05:03:57;9.60;;;8.70;;
45420;SDS011;55462;47.042;8.292;2023-12-20T05:06:22;10.35;;;9.35;;
45420;SDS011;55462;47.042;8.292;2023-12-20T05:08:48;8.95;;;8.15;;
45420;SDS011;55462;47.042;8.292;2023-12-20T05:11:13;9.30;;;8.50;;
45420;SDS011;55462;47.042;8.292;2023-12-20T05:13:40;9.40;;;8.47;;
45420;SDS011;55462;47.042;8.292;2023-12-20T05:16:05;10.00;;;8.97;;
45420;SDS011;55462;47.042;8.292;2023-12-20T05:18:31;9.73;;;8.83;;
45420;SDS011;55462;47.042;8.292;2023-12-20T05:20:56;9.63;;;8.68;;
45420;SDS011;55462;47.042;8.292;2023-12-20T05:23:21;9.88;;;8.90;;
45420;SDS011;55462;47.042;8.292;2023-12-20T05:25:46;9.93;;;8.93;;
45420;SDS011;55462;47.042;8.292;2023-12-20T05:28:12;10.40;;;9.30;;
45420;SDS011;55462;47.042;8.292;2023-12-20T05:30:37;10.68;;;9.68;;
45420;SDS011;55462;47.042;8.292;2023-12-20T05:33:03;11.83;;;9.77;;
45420;SDS011;55462;47.042;8.292;2023-12-20T05:35:28;10.63;;;9.63;;
45420;SDS011;55462;47.042;8.292;2023-12-20T05:37:53;13.67;;;10.47;;
45420;SDS011;55462;47.042;8.292;2023-12-20T05:40:19;13.43;;;10.57;;
45420;SDS011;55462;47.042;8.292;2023-12-20T05:42:44;11.87;;;10.03;;
45420;SDS011;55462;47.042;8.292;2023-12-20T05:45:09;13.50;;;10.40;;
45420;SDS011;55462;47.042;8.292;2023-12-20T05:47:35;16.10;;;10.90;;
45420;SDS011;55462;47.042;8.292;2023-12-20T05:50:01;11.80;;;10.40;;
45420;SDS011;55462;47.042;8.292;2023-12-20T05:52:26;11.87;;;10.33;;
45420;SDS011;55462;47.042;8.292;2023-12-20T05:54:51;9.77;;;8.77;;
45420;SDS011;55462;47.042;8.292;2023-12-20T05:57:17;10.57;;;9.47;;
45420;SDS011;55462;47.042;8.292;2023-12-20T05:59:42;12.83;;;11.00;;
45420;SDS011;55462;47.042;8.292;2023-12-20T06:02:07;10.83;;;9.83;;
45420;SDS011;55462;47.042;8.292;2023-12-20T06:04:33;9.38;;;8.48;;
45420;SDS011;55462;47.042;8.292;2023-12-20T06:06:58;12.17;;;9.67;;
45420;SDS011;55462;47.042;8.292;2023-12-20T06:09:24;9.23;;;8.43;;
45420;SDS011;55462;47.042;8.292;2023-12-20T06:11:50;10.47;;;9.30;;
45420;SDS011;55462;47.042;8.292;2023-12-20T06:14:16;9.80;;;8.90;;
45420;SDS011;55462;47.042;8.292;2023-12-20T06:16:41;9.23;;;8.27;;
45420;SDS011;55462;47.042;8.292;2023-12-20T06:19:06;9.40;;;8.60;;
45420;SDS011;55462;47.042;8.292;2023-12-20T06:21:32;10.20;;;9.30;;
45420;SDS011;55462;47.042;8.292;2023-12-20T06:23:58;7.63;;;7.03;;
45420;SDS011;55462;47.042;8.292;2023-12-20T06:26:24;9.97;;;9.00;;
45420;SDS011;55462;47.042;8.292;2023-12-20T06:28:49;10.07;;;9.07;;
45420;SDS011;55462;47.042;8.292;2023-12-20T06:31:14;10.67;;;9.13;;
45420;SDS011;55462;47.042;8.292;2023-12-20T06:33:40;11.60;;;10.50;;
45420;SDS011;55462;47.042;8.292;2023-12-20T06:36:10;13.33;;;10.47;;
45420;SDS011;55462;47.042;8.292;2023-12-20T06:38:36;12.03;;;10.43;;
45420;SDS011;55462;47.042;8.292;2023-12-20T06:41:02;12.57;;;10.73;;
45420;SDS011;55462;47.042;8.292;2023-12-20T06:43:27;10.37;;;9.17;;
45420;SDS011;55462;47.042;8.292;2023-12-20T06:45:53;11.53;;;9.60;;
45420;SDS011;55462;47.042;8.292;2023-12-20T06:48:18;10.70;;;9.60;;
45420;SDS011;55462;47.042;8.292;2023-12-20T06:50:44;11.63;;;9.67;;
45420;SDS011;55462;47.042;8.292;2023-12-20T06:53:09;13.60;;;9.60;;
45420;SDS011;55462;47.042;8.292;2023-12-20T06:55:35;12.27;;;10.07;;
45420;SDS011;55462;47.042;8.292;2023-12-20T06:58:01;11.40;;;10.30;;
45420;SDS011;55462;47.042;8.292;2023-12-20T07:00:27;12.43;;;10.20;;
45420;SDS011;55462;47.042;8.292;2023-12-20T07:02:53;11.67;;;10.10;;
45420;SDS011;55462;47.042;8.292;2023-12-20T07:05:18;10.13;;;9.10;;
45420;SDS011;55462;47.042;8.292;2023-12-20T07:07:45;8.98;;;8.18;;
45420;SDS011;55462;47.042;8.292;2023-12-20T07:10:11;9.15;;;8.25;;
45420;SDS011;55462;47.042;8.292;2023-12-20T07:12:36;7.80;;;7.00;;
45420;SDS011;55462;47.042;8.292;2023-12-20T07:15:02;8.50;;;7.70;;
45420;SDS011;55462;47.042;8.292;2023-12-20T07:17:27;8.35;;;7.55;;
45420;SDS011;55462;47.042;8.292;2023-12-20T07:19:53;8.25;;;7.55;;
45420;SDS011;55462;47.042;8.292;2023-12-20T07:22:18;8.73;;;7.80;;
45420;SDS011;55462;47.042;8.292;2023-12-20T07:24:43;9.80;;;8.30;;
45420;SDS011;55462;47.042;8.292;2023-12-20T07:27:08;8.82;;;8.02;;
45420;SDS011;55462;47.042;8.292;2023-12-20T07:29:34;8.57;;;7.67;;
45420;SDS011;55462;47.042;8.292;2023-12-20T07:31:59;10.87;;;8.07;;
45420;SDS011;55462;47.042;8.292;2023-12-20T07:34:24;8.98;;;8.05;;
45420;SDS011;55462;47.042;8.292;2023-12-20T07:36:50;9.10;;;8.23;;
45420;SDS011;55462;47.042;8.292;2023-12-20T07:39:15;9.02;;;7.97;;
45420;SDS011;55462;47.042;8.292;2023-12-20T07:41:41;7.63;;;7.03;;
45420;SDS011;55462;47.042;8.292;2023-12-20T07:44:06;8.77;;;7.97;;
45420;SDS011;55462;47.042;8.292;2023-12-20T07:46:31;9.63;;;8.75;;
45420;SDS011;55462;47.042;8.292;2023-12-20T07:48:57;8.70;;;7.93;;
45420;SDS011;55462;47.042;8.292;2023-12-20T07:51:22;9.10;;;8.20;;
45420;SDS011;55462;47.042;8.292;2023-12-20T07:53:47;9.50;;;8.18;;
45420;SDS011;55462;47.042;8.292;2023-12-20T07:56:14;9.73;;;8.80;;
45420;SDS011;55462;47.042;8.292;2023-12-20T07:58:42;14.03;;;9.70;;
45420;SDS011;55462;47.042;8.292;2023-12-20T08:01:08;10.93;;;9.87;;
45420;SDS011;55462;47.042;8.292;2023-12-20T08:03:33;11.57;;;9.68;;
45420;SDS011;55462;47.042;8.292;2023-12-20T08:05:59;10.35;;;9.13;;
45420;SDS011;55462;47.042;8.292;2023-12-20T08:08:24;10.18;;;9.18;;
45420;SDS011;55462;47.042;8.292;2023-12-20T08:10:50;10.10;;;9.02;;
45420;SDS011;55462;47.042;8.292;2023-12-20T08:13:15;9.57;;;8.67;;
45420;SDS011;55462;47.042;8.292;2023-12-20T08:15:41;10.70;;;9.60;;
45420;SDS011;55462;47.042;8.292;2023-12-20T08:18:06;11.07;;;9.97;;
45420;SDS011;55462;47.042;8.292;2023-12-20T08:20:31;10.40;;;9.40;;
45420;SDS011;55462;47.042;8.292;2023-12-20T08:22:56;9.07;;;8.27;;
45420;SDS011;55462;47.042;8.292;2023-12-20T08:25:22;10.57;;;9.67;;
45420;SDS011;55462;47.042;8.292;2023-12-20T08:27:47;8.30;;;7.50;;
45420;SDS011;55462;47.042;8.292;2023-12-20T08:30:12;9.33;;;8.43;;
45420;SDS011;55462;47.042;8.292;2023-12-20T08:32:38;10.40;;;9.30;;
45420;SDS011;55462;47.042;8.292;2023-12-20T08:35:03;10.23;;;9.33;;
45420;SDS011;55462;47.042;8.292;2023-12-20T08:37:29;13.17;;;10.27;;
45420;SDS011;55462;47.042;8.292;2023-12-20T08:39:55;11.13;;;9.97;;
45420;SDS011;55462;47.042;8.292;2023-12-20T08:42:20;11.23;;;9.90;;
45420;SDS011;55462;47.042;8.292;2023-12-20T08:44:46;11.07;;;9.50;;
45420;SDS011;55462;47.042;8.292;2023-12-20T08:47:11;11.85;;;8.90;;
45420;SDS011;55462;47.042;8.292;2023-12-20T08:49:38;9.27;;;8.33;;
45420;SDS011;55462;47.042;8.292;2023-12-20T08:52:04;10.37;;;9.27;;
45420;SDS011;55462;47.042;8.292;2023-12-20T08:54:29;8.13;;;7.33;;
45420;SDS011;55462;47.042;8.292;2023-12-20T08:56:54;11.33;;;8.57;;
45420;SDS011;55462;47.042;8.292;2023-12-20T08:59:20;13.50;;;9.83;;
45420;SDS011;55462;47.042;8.292;2023-12-20T09:01:45;11.20;;;8.70;;
45420;SDS011;55462;47.042;8.292;2023-12-20T09:04:11;9.23;;;8.33;;
45420;SDS011;55462;47.042;8.292;2023-12-20T09:06:36;8.23;;;7.53;;
45420;SDS011;55462;47.042;8.292;2023-12-20T09:09:02;8.50;;;7.33;;
45420;SDS011;55462;47.042;8.292;2023-12-20T09:11:27;8.73;;;7.80;;
45420;SDS011;55462;47.042;8.292;2023-12-20T09:13:52;8.97;;;8.10;;
45420;SDS011;55462;47.042;8.292;2023-12-20T09:16:18;8.32;;;7.53;;
45420;SDS011;55462;47.042;8.292;2023-12-20T09:18:43;7.63;;;6.93;;
45420;SDS011;55462;47.042;8.292;2023-12-20T09:21:08;8.80;;;7.50;;
45420;SDS011;55462;47.042;8.292;2023-12-20T09:23:34;7.30;;;6.63;;
45420;SDS011;55462;47.042;8.292;2023-12-20T09:25:59;8.35;;;7.28;;
45420;SDS011;55462;47.042;8.292;2023-12-20T09:28:24;9.05;;;7.40;;
45420;SDS011;55462;47.042;8.292;2023-12-20T09:30:50;8.03;;;6.60;;
45420;SDS011;55462;47.042;8.292;2023-12-20T09:33:15;7.57;;;6.90;;
45420;SDS011;55462;47.042;8.292;2023-12-20T09:35:41;7.97;;;6.85;;
45420;SDS011;55462;47.042;8.292;2023-12-20T09:38:07;7.63;;;6.82;;
45420;SDS011;55462;47.042;8.292;2023-12-20T09:40:32;7.97;;;7.25;;
45420;SDS011;55462;47.042;8.292;2023-12-20T09:43:08;7.63;;;6.75;;
45420;SDS011;55462;47.042;8.292;2023-12-20T09:45:35;7.60;;;6.90;;
45420;SDS011;55462;47.042;8.292;2023-12-20T09:48:01;7.47;;;6.88;;
45420;SDS011;55462;47.042;8.292;2023-12-20T09:50:27;6.80;;;6.10;;
45420;SDS011;55462;47.042;8.292;2023-12-20T09:52:55;7.13;;;6.53;;
45420;SDS011;55462;47.042;8.292;2023-12-20T09:55:21;5.80;;;5.30;;
45420;SDS011;55462;47.042;8.292;2023-12-20T09:57:47;7.22;;;6.15;;
45420;SDS011;55462;47.042;8.292;2023-12-20T10:00:13;7.22;;;6.53;;
45420;SDS011;55462;47.042;8.292;2023-12-20T10:02:40;6.55;;;5.82;;
45420;SDS011;55462;47.042;8.292;2023-12-20T10:05:09;6.82;;;6.22;;
45420;SDS011;55462;47.042;8.292;2023-12-20T10:07:40;6.72;;;6.15;;
45420;SDS011;55462;47.042;8.292;2023-12-20T10:10:06;6.97;;;6.38;;
45420;SDS011;55462;47.042;8.292;2023-12-20T10:12:33;8.95;;;6.30;;
45420;SDS011;55462;47.042;8.292;2023-12-20T10:14:59;8.25;;;5.72;;
45420;SDS011;55462;47.042;8.292;2023-12-20T10:17:24;6.38;;;5.88;;
45420;SDS011;55462;47.042;8.292;2023-12-20T10:19:54;6.25;;;5.75;;
45420;SDS011;55462;47.042;8.292;2023-12-20T10:22:19;6.30;;;5.80;;
45420;SDS011;55462;47.042;8.292;2023-12-20T10:24:45;6.80;;;6.15;;
45420;SDS011;55462;47.042;8.292;2023-12-20T10:27:11;6.70;;;6.10;;
45420;SDS011;55462;47.042;8.292;2023-12-20T10:29:37;6.80;;;6.20;;
45420;SDS011;55462;47.042;8.292;2023-12-20T10:34:50;5.75;;;5.28;;
45420;SDS011;55462;47.042;8.292;2023-12-20T10:37:17;5.68;;;5.28;;
45420;SDS011;55462;47.042;8.292;2023-12-20T10:39:42;5.90;;;5.40;;
45420;SDS011;55462;47.042;8.292;2023-12-20T10:42:12;6.03;;;5.63;;
45420;SDS011;55462;47.042;8.292;2023-12-20T10:44:37;6.07;;;5.57;;
45420;SDS011;55462;47.042;8.292;2023-12-20T10:47:03;6.15;;;5.65;;
45420;SDS011;55462;47.042;8.292;2023-12-20T10:49:29;6.85;;;6.25;;
45420;SDS011;55462;47.042;8.292;2023-12-20T10:51:55;6.40;;;5.60;;
45420;SDS011;55462;47.042;8.292;2023-12-20T10:54:22;7.43;;;6.75;;
45420;SDS011;55462;47.042;8.292;2023-12-20T10:56:47;7.38;;;6.68;;
45420;SDS011;55462;47.042;8.292;2023-12-20T10:59:16;8.32;;;7.25;;
45420;SDS011;55462;47.042;8.292;2023-12-20T11:01:44;7.47;;;6.88;;
45420;SDS011;55462;47.042;8.292;2023-12-20T11:04:10;7.68;;;7.07;;
45420;SDS011;55462;47.042;8.292;2023-12-20T11:06:58;7.35;;;6.32;;
45420;SDS011;55462;47.042;8.292;2023-12-20T11:09:35;9.02;;;6.75;;
45420;SDS011;55462;47.042;8.292;2023-12-20T11:12:16;8.32;;;7.63;;
45420;SDS011;55462;47.042;8.292;2023-12-20T11:14:52;7.82;;;7.05;;
45420;SDS011;55462;47.042;8.292;2023-12-20T11:17:19;8.52;;;7.82;;
45420;SDS011;55462;47.042;8.292;2023-12-20T11:22:25;8.02;;;7.30;;
45420;SDS011;55462;47.042;8.292;2023-12-20T11:24:51;8.93;;;8.02;;
45420;SDS011;55462;47.042;8.292;2023-12-20T11:27:18;7.63;;;6.93;;
45420;SDS011;55462;47.042;8.292;2023-12-20T11:29:43;7.78;;;7.07;;
45420;SDS011;55462;47.042;8.292;2023-12-20T11:34:53;9.10;;;6.30;;
45420;SDS011;55462;47.042;8.292;2023-12-20T11:37:19;7.22;;;6.35;;
45420;SDS011;55462;47.042;8.292;2023-12-20T11:39:45;7.00;;;6.40;;
45420;SDS011;55462;47.042;8.292;2023-12-20T11:42:10;7.03;;;6.32;;
45420;SDS011;55462;47.042;8.292;2023-12-20T11:44:36;7.68;;;7.00;;
45420;SDS011;55462;47.042;8.292;2023-12-20T11:47:02;6.47;;;5.97;;
45420;SDS011;55462;47.042;8.292;2023-12-20T11:49:28;7.40;;;6.68;;
45420;SDS011;55462;47.042;8.292;2023-12-20T11:51:55;5.47;;;5.07;;
45420;SDS011;55462;47.042;8.292;2023-12-20T11:54:21;6.65;;;5.53;;
45420;SDS011;55462;47.042;8.292;2023-12-20T11:56:46;6.95;;;6.03;;
45420;SDS011;55462;47.042;8.292;2023-12-20T11:59:12;7.53;;;5.45;;
45420;SDS011;55462;47.042;8.292;2023-12-20T12:01:37;6.95;;;6.20;;
45420;SDS011;55462;47.042;8.292;2023-12-20T12:04:03;6.70;;;6.07;;
45420;SDS011;55462;47.042;8.292;2023-12-20T12:06:29;5.97;;;5.47;;
45420;SDS011;55462;47.042;8.292;2023-12-20T12:08:54;6.53;;;5.93;;
45420;SDS011;55462;47.042;8.292;2023-12-20T12:11:20;6.68;;;6.07;;
45420;SDS011;55462;47.042;8.292;2023-12-20T12:13:46;6.47;;;5.97;;
45420;SDS011;55462;47.042;8.292;2023-12-20T12:16:11;6.22;;;5.72;;
45420;SDS011;55462;47.042;8.292;2023-12-20T12:18:36;7.20;;;6.10;;
45420;SDS011;55462;47.042;8.292;2023-12-20T12:21:02;7.32;;;6.63;;
45420;SDS011;55462;47.042;8.292;2023-12-20T12:23:28;6.10;;;5.57;;
45420;SDS011;55462;47.042;8.292;2023-12-20T12:25:53;6.25;;;5.75;;
45420;SDS011;55462;47.042;8.292;2023-12-20T12:28:20;7.35;;;6.65;;
45420;SDS011;55462;47.042;8.292;2023-12-20T12:30:58;6.35;;;5.85;;
45420;SDS011;55462;47.042;8.292;2023-12-20T12:33:26;6.88;;;6.28;;
45420;SDS011;55462;47.042;8.292;2023-12-20T12:35:52;8.02;;;7.15;;
45420;SDS011;55462;47.042;8.292;2023-12-20T12:38:21;7.30;;;6.20;;
45420;SDS011;55462;47.042;8.292;2023-12-20T12:40:46;9.18;;;6.93;;
45420;SDS011;55462;47.042;8.292;2023-12-20T12:43:12;7.55;;;6.90;;
45420;SDS011;55462;47.042;8.292;2023-12-20T12:45:37;8.05;;;7.35;;
45420;SDS011;55462;47.042;8.292;2023-12-20T12:48:03;7.15;;;6.45;;
45420;SDS011;55462;47.042;8.292;2023-12-20T12:50:29;6.85;;;6.15;;
45420;SDS011;55462;47.042;8.292;2023-12-20T12:52:55;6.60;;;6.00;;
45420;SDS011;55462;47.042;8.292;2023-12-20T12:55:21;6.72;;;5.90;;
45420;SDS011;55462;47.042;8.292;2023-12-20T12:57:46;5.93;;;5.43;;
45420;SDS011;55462;47.042;8.292;2023-12-20T13:00:11;6.95;;;6.10;;
45420;SDS011;55462;47.042;8.292;2023-12-20T13:02:37;5.63;;;4.57;;
45420;SDS011;55462;47.042;8.292;2023-12-20T13:05:03;4.65;;;4.15;;
45420;SDS011;55462;47.042;8.292;2023-12-20T13:07:29;4.07;;;3.72;;
45420;SDS011;55462;47.042;8.292;2023-12-20T13:09:54;11.95;;;3.45;;
45420;SDS011;55462;47.042;8.292;2023-12-20T13:12:20;3.60;;;3.30;;
45420;SDS011;55462;47.042;8.292;2023-12-20T13:14:46;3.33;;;3.03;;
45420;SDS011;55462;47.042;8.292;2023-12-20T13:17:12;3.03;;;2.78;;
45420;SDS011;55462;47.042;8.292;2023-12-20T13:19:37;2.50;;;2.30;;
45420;SDS011;55462;47.042;8.292;2023-12-20T13:22:03;2.60;;;2.40;;
45420;SDS011;55462;47.042;8.292;2023-12-20T13:24:28;2.50;;;2.30;;
45420;SDS011;55462;47.042;8.292;2023-12-20T13:26:54;4.93;;;2.45;;
45420;SDS011;55462;47.042;8.292;2023-12-20T13:29:19;3.13;;;2.17;;
45420;SDS011;55462;47.042;8.292;2023-12-20T13:31:45;2.30;;;2.10;;
45420;SDS011;55462;47.042;8.292;2023-12-20T13:34:10;2.25;;;2.10;;
45420;SDS011;55462;47.042;8.292;2023-12-20T13:36:36;3.22;;;2.47;;
45420;SDS011;55462;47.042;8.292;2023-12-20T13:39:02;3.90;;;2.38;;
45420;SDS011;55462;47.042;8.292;2023-12-20T13:41:29;2.38;;;2.17;;
45420;SDS011;55462;47.042;8.292;2023-12-20T13:43:55;3.30;;;2.30;;
45420;SDS011;55462;47.042;8.292;2023-12-20T13:46:20;2.75;;;2.55;;
45420;SDS011;55462;47.042;8.292;2023-12-20T13:48:45;2.67;;;2.47;;
45420;SDS011;55462;47.042;8.292;2023-12-20T13:51:11;2.38;;;2.17;;
45420;SDS011;55462;47.042;8.292;2023-12-20T13:53:36;2.60;;;2.40;;
45420;SDS011;55462;47.042;8.292;2023-12-20T13:56:01;2.88;;;2.47;;
45420;SDS011;55462;47.042;8.292;2023-12-20T13:58:27;2.28;;;2.17;;
45420;SDS011;55462;47.042;8.292;2023-12-20T14:00:52;3.25;;;2.40;;
45420;SDS011;55462;47.042;8.292;2023-12-20T14:03:17;2.35;;;2.15;;
45420;SDS011;55462;47.042;8.292;2023-12-20T14:05:44;1.90;;;1.80;;
45420;SDS011;55462;47.042;8.292;2023-12-20T14:08:10;1.73;;;1.63;;
45420;SDS011;55462;47.042;8.292;2023-12-20T14:10:35;1.92;;;1.73;;
45420;SDS011;55462;47.042;8.292;2023-12-20T14:13:01;2.78;;;1.48;;
45420;SDS011;55462;47.042;8.292;2023-12-20T14:15:26;3.33;;;2.00;;
45420;SDS011;55462;47.042;8.292;2023-12-20T14:17:51;1.60;;;1.50;;
45420;SDS011;55462;47.042;8.292;2023-12-20T14:20:18;1.70;;;1.60;;
45420;SDS011;55462;47.042;8.292;2023-12-20T14:22:43;2.50;;;1.85;;
45420;SDS011;55462;47.042;8.292;2023-12-20T14:25:10;2.00;;;1.90;;
45420;SDS011;55462;47.042;8.292;2023-12-20T14:27:37;2.22;;;1.58;;
45420;SDS011;55462;47.042;8.292;2023-12-20T14:30:02;2.65;;;2.03;;
45420;SDS011;55462;47.042;8.292;2023-12-20T14:32:28;1.70;;;1.60;;
45420;SDS011;55462;47.042;8.292;2023-12-20T14:34:53;1.88;;;1.77;;
45420;SDS011;55462;47.042;8.292;2023-12-20T14:37:19;1.92;;;1.83;;
45420;SDS011;55462;47.042;8.292;2023-12-20T14:39:45;2.85;;;1.83;;
45420;SDS011;55462;47.042;8.292;2023-12-20T14:42:10;7.47;;;2.00;;